createdAt,value
2019-02-08T00:01:02.799Z,70.07
2019-02-08T00:03:31.474Z,65.27
2019-02-08T00:06:00.515Z,62.77
2019-02-08T00:08:29.310Z,57.77
2019-02-08T00:10:58.052Z,62.40
2019-02-08T00:13:26.759Z,65.37
2019-02-08T00:15:55.510Z,60.53
2019-02-08T00:18:24.176Z,59.33
2019-02-08T00:20:52.848Z,71.03
2019-02-08T00:23:27.036Z,58.70
2019-02-08T00:25:52.274Z,58.83
2019-02-08T00:28:21.078Z,63.73
2019-02-08T00:30:49.822Z,64.42
2019-02-08T00:33:18.601Z,67.12
2019-02-08T00:35:47.281Z,70.03
2019-02-08T00:38:16.002Z,73.42
2019-02-08T00:40:44.723Z,66.25
2019-02-08T00:43:13.499Z,68.62
2019-02-08T00:45:42.236Z,65.72
2019-02-08T00:48:11.030Z,76.22
2019-02-08T00:50:39.740Z,82.53
2019-02-08T00:53:08.440Z,80.47
2019-02-08T00:55:37.409Z,77.35
2019-02-08T00:58:06.178Z,78.37
2019-02-08T01:00:34.925Z,82.67
2019-02-08T01:03:03.849Z,78.33
2019-02-08T01:05:35.431Z,83.23
2019-02-08T01:08:04.610Z,94.45
2019-02-08T01:10:33.366Z,92.97
2019-02-08T01:13:05.374Z,89.35
2019-02-08T01:15:34.119Z,76.17
2019-02-08T01:18:02.900Z,94.28
2019-02-08T01:20:31.561Z,78.72
2019-02-08T01:23:00.286Z,83.22
2019-02-08T01:25:28.952Z,88.42
2019-02-08T01:27:57.562Z,80.70
2019-02-08T01:30:27.211Z,86.85
2019-02-08T01:32:55.898Z,76.33
2019-02-08T01:35:25.052Z,79.40
2019-02-08T01:37:54.072Z,69.87
2019-02-08T01:40:26.629Z,84.35
2019-02-08T01:42:55.360Z,77.20
2019-02-08T01:45:24.940Z,73.30
2019-02-08T01:47:53.646Z,61.60
2019-02-08T01:50:23.266Z,64.87
2019-02-08T01:52:52.138Z,74.15
2019-02-08T01:55:20.910Z,73.30
2019-02-08T01:57:50.220Z,73.72
2019-02-08T02:00:20.301Z,69.45
2019-02-08T02:02:49.014Z,84.47
2019-02-08T02:05:17.838Z,65.72
2019-02-08T02:07:46.618Z,72.80
2019-02-08T02:10:28.697Z,67.90
2019-02-08T02:12:57.756Z,82.55
2019-02-08T02:15:26.788Z,73.72
2019-02-08T02:17:55.585Z,73.25
2019-02-08T02:20:25.315Z,75.50
2019-02-08T02:22:54.010Z,87.47
2019-02-08T02:25:22.848Z,92.55
2019-02-08T02:27:51.530Z,88.07
2019-02-08T02:30:24.420Z,78.28
2019-02-08T02:32:53.182Z,86.08
2019-02-08T02:35:21.896Z,81.17
2019-02-08T02:37:50.584Z,72.22
2019-02-08T02:40:20.170Z,69.95
2019-02-08T02:42:48.917Z,72.80
2019-02-08T02:45:19.236Z,71.77
2019-02-08T02:47:47.969Z,71.67
2019-02-08T02:50:16.732Z,69.77
2019-02-08T02:52:45.643Z,61.17
2019-02-08T02:55:14.550Z,66.20
2019-02-08T02:57:44.702Z,69.10
2019-02-08T03:00:17.832Z,64.50
2019-02-08T03:02:46.547Z,62.27
2019-02-08T03:05:15.433Z,57.57
2019-02-08T03:07:44.147Z,52.20
2019-02-08T03:10:13.668Z,57.08
2019-02-08T03:12:42.363Z,54.03
2019-02-08T03:15:11.364Z,54.98
2019-02-08T03:17:40.144Z,56.27
2019-02-08T03:20:10.047Z,52.33
2019-02-08T03:22:38.736Z,57.17
2019-02-08T03:25:07.844Z,58.43
2019-02-08T03:27:36.545Z,54.73
2019-02-08T03:30:07.035Z,58.57
2019-02-08T03:32:35.821Z,55.73
2019-02-08T03:35:05.711Z,54.97
2019-02-08T03:37:34.402Z,55.83
2019-02-08T03:40:03.037Z,52.87
2019-02-08T03:42:31.802Z,54.03
2019-02-08T03:45:00.439Z,45.77
2019-02-08T03:47:29.106Z,40.27
2019-02-08T03:49:57.758Z,45.37
2019-02-08T03:52:26.465Z,42.63
2019-02-08T03:54:55.153Z,45.80
2019-02-08T03:57:23.859Z,42.73
2019-02-08T03:59:52.524Z,44.73
2019-02-08T04:02:21.251Z,43.23
2019-02-08T04:04:50.034Z,47.90
2019-02-08T04:07:18.870Z,45.50
2019-02-08T04:09:47.672Z,47.93
2019-02-08T04:12:16.453Z,51.03
2019-02-08T04:14:45.160Z,43.67
2019-02-08T04:17:13.894Z,47.47
2019-02-08T04:19:42.585Z,47.27
2019-02-08T04:22:11.257Z,44.07
2019-02-08T04:24:40.000Z,44.33
2019-02-08T04:27:08.718Z,45.23
2019-02-08T04:29:37.436Z,44.17
2019-02-08T04:32:06.118Z,43.43
2019-02-08T04:34:34.831Z,41.57
2019-02-08T04:37:03.499Z,41.53
2019-02-08T04:39:32.217Z,42.87
2019-02-08T04:42:00.946Z,42.73
2019-02-08T04:44:29.640Z,39.20
2019-02-08T04:46:58.396Z,43.37
2019-02-08T04:49:27.114Z,39.27
2019-02-08T04:51:55.822Z,45.10
2019-02-08T04:54:24.823Z,38.03
2019-02-08T04:56:53.608Z,42.03
2019-02-08T04:59:22.326Z,38.07
2019-02-08T05:01:51.054Z,37.40
2019-02-08T05:04:19.767Z,44.80
2019-02-08T05:06:48.632Z,37.83
2019-02-08T05:09:17.270Z,39.50
2019-02-08T05:11:45.904Z,40.30
2019-02-08T05:14:14.583Z,39.40
2019-02-08T05:16:43.274Z,36.73
2019-02-08T05:19:11.950Z,38.83
2019-02-08T05:21:40.748Z,38.97
2019-02-08T05:24:09.451Z,38.23
2019-02-08T05:26:38.191Z,40.00
2019-02-08T05:29:06.847Z,34.93
2019-02-08T05:31:35.540Z,35.23
2019-02-08T05:34:04.594Z,36.87
2019-02-08T05:36:33.240Z,38.80
2019-02-08T05:39:01.822Z,36.00
2019-02-08T05:41:30.462Z,35.63
2019-02-08T05:43:59.125Z,35.73
2019-02-08T05:46:27.805Z,36.57
2019-02-08T05:48:56.501Z,33.67
2019-02-08T05:51:25.212Z,34.83
2019-02-08T05:53:53.914Z,34.43
2019-02-08T05:56:22.476Z,32.53
2019-02-08T05:58:51.200Z,36.97
2019-02-08T06:01:19.946Z,34.00
2019-02-08T06:03:48.629Z,38.00
2019-02-08T06:06:17.344Z,37.37
2019-02-08T06:08:46.006Z,33.30
2019-02-08T06:11:15.518Z,33.43
2019-02-08T06:13:44.177Z,33.50
2019-02-08T06:16:12.914Z,35.40
2019-02-08T06:18:41.726Z,36.77
2019-02-08T06:21:10.416Z,29.97
2019-02-08T06:23:39.169Z,41.13
2019-02-08T06:26:08.084Z,33.37
2019-02-08T06:28:36.848Z,33.87
2019-02-08T06:31:05.644Z,32.87
2019-02-08T06:33:34.474Z,34.30
2019-02-08T06:36:03.226Z,34.70
2019-02-08T06:38:31.944Z,30.30
2019-02-08T06:41:00.645Z,34.30
2019-02-08T06:43:29.340Z,31.87
2019-02-08T06:45:58.057Z,35.03
2019-02-08T06:48:26.726Z,32.63
2019-02-08T06:50:55.416Z,33.87
2019-02-08T06:53:24.138Z,32.43
2019-02-08T06:55:53.982Z,33.77
2019-02-08T06:58:36.098Z,34.60
2019-02-08T07:01:24.056Z,34.43
2019-02-08T07:04:11.294Z,33.13
2019-02-08T07:06:57.722Z,33.93
2019-02-08T07:09:54.704Z,35.00
2019-02-08T07:12:41.034Z,31.27
2019-02-08T07:15:38.055Z,30.67
2019-02-08T07:18:41.061Z,31.90
2019-02-08T07:21:46.796Z,34.60
2019-02-08T07:24:27.691Z,30.73
2019-02-08T07:27:16.499Z,32.20
2019-02-08T07:30:02.848Z,27.10
2019-02-08T07:32:51.661Z,29.10
2019-02-08T07:35:29.554Z,22.63
2019-02-08T07:38:24.187Z,25.17
2019-02-08T07:41:14.412Z,27.07
2019-02-08T07:44:08.270Z,27.93
2019-02-08T07:46:43.759Z,29.17
2019-02-08T07:49:31.606Z,27.10
2019-02-08T07:52:28.280Z,26.67
2019-02-08T07:55:05.962Z,26.33
2019-02-08T07:57:59.091Z,28.30
2019-02-08T08:00:58.779Z,23.50
2019-02-08T08:04:01.792Z,23.43
2019-02-08T08:06:51.681Z,22.97
2019-02-08T08:09:35.414Z,23.67
2019-02-08T08:12:26.561Z,23.13
2019-02-08T08:15:20.408Z,24.97
2019-02-08T08:18:08.208Z,25.93
2019-02-08T08:20:54.516Z,24.10
2019-02-08T08:23:46.315Z,26.00
2019-02-08T08:26:32.672Z,22.17
2019-02-08T08:29:04.933Z,24.40
2019-02-08T08:31:54.366Z,23.17
2019-02-08T08:34:30.817Z,19.83
2019-02-08T08:37:08.197Z,23.67
2019-02-08T08:39:58.948Z,24.37
2019-02-08T08:42:49.448Z,24.57
2019-02-08T08:45:28.315Z,24.90
2019-02-08T08:48:03.863Z,23.73
2019-02-08T08:50:50.230Z,29.87
2019-02-08T08:53:41.081Z,34.30
2019-02-08T08:56:33.922Z,25.13
2019-02-08T08:59:19.143Z,20.73
2019-02-08T09:02:06.974Z,19.83
2019-02-08T09:04:54.788Z,18.33
2019-02-08T09:07:45.345Z,15.77
2019-02-08T09:10:35.935Z,17.23
2019-02-08T09:13:29.492Z,19.13
2019-02-08T09:16:23.294Z,18.20
2019-02-08T09:19:10.904Z,15.07
2019-02-08T09:22:04.462Z,17.33
2019-02-08T09:25:07.197Z,17.83
2019-02-08T09:27:48.113Z,16.17
2019-02-08T09:30:30.092Z,15.27
2019-02-08T09:33:22.925Z,15.43
2019-02-08T09:36:09.135Z,15.57
2019-02-08T09:39:04.300Z,13.97
2019-02-08T09:41:50.467Z,12.97
2019-02-08T09:44:33.206Z,15.70
2019-02-08T09:47:20.998Z,10.10
2019-02-08T09:50:09.929Z,11.47
2019-02-08T09:52:53.008Z,11.30
2019-02-08T09:55:42.275Z,9.20
2019-02-08T09:58:28.926Z,9.73
2019-02-08T10:01:09.402Z,11.07
2019-02-08T10:03:47.961Z,11.20
2019-02-08T10:06:41.915Z,9.43
2019-02-08T10:09:32.701Z,9.00
2019-02-08T10:12:20.510Z,12.43
2019-02-08T10:15:06.873Z,13.33
2019-02-08T10:17:53.425Z,7.13
2019-02-08T10:20:34.874Z,8.60
2019-02-08T10:23:25.736Z,11.03
2019-02-08T10:26:22.353Z,10.07
2019-02-08T10:29:25.379Z,9.47
2019-02-08T10:32:19.312Z,8.27
2019-02-08T10:34:57.397Z,7.30
2019-02-08T10:37:45.216Z,7.03
2019-02-08T10:40:33.004Z,13.37
2019-02-08T10:43:19.250Z,6.97
2019-02-08T10:46:05.441Z,7.57
2019-02-08T10:48:52.074Z,10.10
2019-02-08T10:51:48.978Z,8.50
2019-02-08T10:54:36.824Z,8.43
2019-02-08T10:57:24.553Z,7.47
2019-02-08T11:00:06.063Z,6.60
2019-02-08T11:02:59.693Z,7.33
2019-02-08T11:05:46.889Z,7.83
2019-02-08T11:08:33.147Z,6.13
2019-02-08T11:11:19.324Z,9.30
2019-02-08T11:14:05.882Z,4.83
2019-02-08T11:16:59.377Z,4.23
2019-02-08T11:19:27.291Z,7.10
2019-02-08T11:21:56.064Z,6.43
2019-02-08T11:24:25.226Z,5.17
2019-02-08T11:26:54.535Z,8.30
2019-02-08T11:29:23.504Z,7.93
2019-02-08T11:31:52.187Z,7.60
2019-02-08T11:34:20.858Z,8.77
2019-02-08T11:36:49.672Z,6.50
2019-02-08T11:39:19.223Z,7.63
2019-02-08T11:41:48.240Z,6.50
2019-02-08T11:44:17.598Z,7.33
2019-02-08T11:46:46.383Z,7.00
2019-02-08T11:49:15.036Z,9.07
2019-02-08T11:51:43.661Z,8.17
2019-02-08T11:54:12.414Z,9.63
2019-02-08T11:56:41.097Z,5.40
2019-02-08T11:59:09.791Z,6.63
2019-02-08T12:01:43.490Z,5.20
2019-02-08T12:04:12.150Z,3.87
2019-02-08T12:06:40.836Z,4.00
2019-02-08T12:09:10.584Z,5.90
2019-02-08T12:11:39.296Z,7.03
2019-02-08T12:14:07.992Z,6.87
2019-02-08T12:16:36.694Z,8.87
2019-02-08T12:19:05.432Z,6.60
2019-02-08T12:21:34.270Z,5.53
2019-02-08T12:24:03.115Z,5.77
2019-02-08T12:26:37.676Z,5.60
2019-02-08T12:29:03.197Z,5.77
2019-02-08T12:31:31.886Z,9.00
2019-02-08T12:34:00.555Z,8.63
2019-02-08T12:36:29.241Z,5.47
2019-02-08T12:38:57.872Z,5.10
2019-02-08T12:41:26.554Z,8.70
2019-02-08T12:43:55.287Z,7.67
2019-02-08T12:46:24.022Z,6.90
2019-02-08T12:48:52.652Z,5.97
2019-02-08T12:51:21.296Z,5.87
2019-02-08T12:53:49.949Z,5.03
2019-02-08T12:56:18.647Z,8.40
2019-02-08T12:58:47.358Z,5.97
2019-02-08T13:01:16.072Z,7.53
2019-02-08T13:03:44.764Z,10.83
2019-02-08T13:06:32.805Z,6.37
2019-02-08T13:09:01.486Z,7.20
2019-02-08T13:11:30.229Z,9.53
2019-02-08T13:13:58.916Z,7.60
2019-02-08T13:16:27.628Z,6.27
2019-02-08T13:18:56.339Z,8.00
2019-02-08T13:21:25.097Z,6.00
2019-02-08T13:23:53.752Z,6.10
2019-02-08T13:26:22.434Z,6.83
2019-02-08T13:28:51.152Z,7.47
2019-02-08T13:31:19.812Z,6.27
2019-02-08T13:33:48.452Z,4.20
2019-02-08T13:36:17.180Z,10.77
2019-02-08T13:38:45.871Z,6.03
2019-02-08T13:41:14.574Z,5.03
2019-02-08T13:43:43.230Z,9.17
2019-02-08T13:46:11.867Z,7.03
2019-02-08T13:48:40.493Z,5.77
2019-02-08T13:51:09.138Z,5.70
2019-02-08T13:53:37.746Z,7.20
2019-02-08T13:56:06.531Z,7.77
2019-02-08T13:58:35.232Z,5.97
2019-02-08T14:01:04.003Z,5.37
2019-02-08T14:03:32.661Z,8.27
2019-02-08T14:06:02.280Z,11.10
2019-02-08T14:08:31.069Z,6.57
2019-02-08T14:10:59.822Z,8.70
2019-02-08T14:13:28.560Z,5.90
2019-02-08T14:15:57.218Z,5.33
2019-02-08T14:18:25.912Z,5.80
2019-02-08T14:20:54.599Z,7.00
2019-02-08T14:23:23.177Z,4.27
2019-02-08T14:25:51.825Z,7.87
2019-02-08T14:28:20.563Z,3.07
2019-02-08T14:30:49.511Z,5.03
2019-02-08T14:33:18.117Z,6.90
2019-02-08T14:35:46.774Z,7.80
2019-02-08T14:38:17.470Z,10.37
2019-02-08T14:40:46.144Z,3.40
2019-02-08T14:43:14.848Z,2.63
2019-02-08T14:45:43.518Z,5.20
2019-02-08T14:48:12.226Z,6.80
2019-02-08T14:50:40.953Z,4.50
2019-02-08T14:53:09.618Z,7.67
2019-02-08T14:55:38.384Z,5.27
2019-02-08T14:58:07.324Z,3.77
2019-02-08T15:00:36.002Z,5.40
2019-02-08T15:03:04.793Z,8.30
2019-02-08T15:05:33.432Z,9.73
2019-02-08T15:08:02.121Z,8.10
2019-02-08T15:10:32.193Z,6.17
2019-02-08T15:13:01.136Z,6.07
2019-02-08T15:15:29.872Z,6.77
2019-02-08T15:17:58.513Z,8.97
2019-02-08T15:20:28.280Z,4.53
2019-02-08T15:22:57.078Z,4.83
2019-02-08T15:25:25.784Z,6.97
2019-02-08T15:27:54.401Z,7.17
2019-02-08T15:30:23.897Z,6.77
2019-02-08T15:32:52.536Z,4.07
2019-02-08T15:35:21.960Z,6.60
2019-02-08T15:37:50.614Z,5.10
2019-02-08T15:40:24.194Z,3.47
2019-02-08T15:42:52.858Z,9.57
2019-02-08T15:45:21.562Z,10.13
2019-02-08T15:47:50.373Z,8.17
2019-02-08T15:50:19.217Z,8.80
2019-02-08T15:52:47.932Z,10.47
2019-02-08T15:55:18.027Z,8.53
2019-02-08T15:57:46.722Z,5.77
2019-02-08T16:00:16.962Z,7.60
2019-02-08T16:02:45.637Z,5.87
2019-02-08T16:05:14.866Z,7.30
2019-02-08T16:07:43.563Z,13.30
2019-02-08T16:10:12.240Z,10.43
2019-02-08T16:12:40.983Z,6.07
2019-02-08T16:15:11.604Z,7.77
2019-02-08T16:17:40.362Z,4.70
2019-02-08T16:20:09.202Z,10.07
2019-02-08T16:22:37.914Z,7.97
2019-02-08T16:25:06.909Z,6.50
2019-02-08T16:27:39.978Z,10.40
2019-02-08T16:30:09.080Z,15.00
2019-02-08T16:32:37.826Z,6.60
2019-02-08T16:35:06.527Z,7.33
2019-02-08T16:37:35.276Z,5.50
2019-02-08T16:40:05.198Z,6.53
2019-02-08T16:42:33.890Z,8.77
2019-02-08T16:45:02.743Z,6.90
2019-02-08T16:47:31.457Z,8.57
2019-02-08T16:50:00.270Z,8.13
2019-02-08T16:52:28.841Z,8.30
2019-02-08T16:54:57.516Z,12.30
2019-02-08T16:57:26.166Z,7.47
2019-02-08T16:59:54.840Z,8.13
2019-02-08T17:02:23.544Z,6.23
2019-02-08T17:04:52.262Z,9.00
2019-02-08T17:07:20.850Z,11.63
2019-02-08T17:09:49.576Z,10.43
2019-02-08T17:12:18.268Z,8.27
2019-02-08T17:14:46.858Z,6.87
2019-02-08T17:17:15.509Z,9.67
2019-02-08T17:19:44.216Z,8.67
2019-02-08T17:22:12.922Z,5.83
2019-02-08T17:24:42.545Z,9.07
2019-02-08T17:27:11.342Z,6.80
2019-02-08T17:29:40.084Z,7.30
2019-02-08T17:32:09.129Z,3.67
2019-02-08T17:34:37.814Z,8.37
2019-02-08T17:37:06.629Z,6.80
2019-02-08T17:39:35.384Z,9.43
2019-02-08T17:42:04.152Z,6.70
2019-02-08T17:44:32.817Z,8.80
2019-02-08T17:47:01.557Z,6.50
2019-02-08T17:49:30.258Z,10.60
2019-02-08T17:51:59.862Z,9.37
2019-02-08T17:54:28.564Z,10.50
2019-02-08T17:56:57.183Z,11.27
2019-02-08T17:59:25.941Z,16.10
2019-02-08T18:01:54.757Z,9.47
2019-02-08T18:04:23.485Z,8.27
2019-02-08T18:06:52.194Z,13.40
2019-02-08T18:09:20.891Z,11.47
2019-02-08T18:11:49.591Z,11.73
2019-02-08T18:14:18.277Z,13.43
2019-02-08T18:16:47.029Z,8.57
2019-02-08T18:19:15.696Z,10.23
2019-02-08T18:21:44.431Z,14.53
2019-02-08T18:24:13.146Z,15.20
2019-02-08T18:26:41.940Z,13.97
2019-02-08T18:29:10.677Z,15.97
2019-02-08T18:31:39.359Z,17.77
2019-02-08T18:34:08.108Z,13.33
2019-02-08T18:36:36.716Z,12.27
2019-02-08T18:39:06.679Z,11.60
2019-02-08T18:41:35.373Z,9.23
2019-02-08T18:44:04.379Z,9.30
2019-02-08T18:46:33.111Z,11.20
2019-02-08T18:49:01.800Z,11.37
2019-02-08T18:51:30.465Z,15.83
2019-02-08T18:53:59.422Z,9.93
2019-02-08T18:56:28.103Z,10.70
2019-02-08T18:58:56.774Z,8.33
2019-02-08T19:01:28.607Z,12.33
2019-02-08T19:03:57.434Z,10.63
2019-02-08T19:06:26.159Z,11.77
2019-02-08T19:08:54.897Z,10.60
2019-02-08T19:11:23.594Z,9.37
2019-02-08T19:13:52.300Z,11.77
2019-02-08T19:16:21.008Z,9.87
2019-02-08T19:18:49.699Z,11.43
2019-02-08T19:21:18.442Z,10.33
2019-02-08T19:23:47.197Z,13.57
2019-02-08T19:26:15.932Z,12.63
2019-02-08T19:28:44.700Z,14.50
2019-02-08T19:31:13.539Z,13.40
2019-02-08T19:33:42.454Z,11.23
2019-02-08T19:36:11.326Z,11.40
2019-02-08T19:38:40.046Z,10.23
2019-02-08T19:41:08.746Z,11.33
2019-02-08T19:43:37.676Z,6.57
2019-02-08T19:46:06.493Z,11.37
2019-02-08T19:48:35.363Z,11.60
2019-02-08T19:51:04.216Z,10.47
2019-02-08T19:53:33.062Z,9.73
2019-02-08T19:56:01.800Z,12.00
2019-02-08T19:58:34.470Z,10.10
2019-02-08T20:01:01.013Z,15.07
2019-02-08T20:03:29.704Z,13.70
2019-02-08T20:05:58.559Z,13.80
2019-02-08T20:08:27.257Z,12.67
2019-02-08T20:10:55.989Z,13.43
2019-02-08T20:13:24.656Z,11.97
2019-02-08T20:15:53.352Z,12.57
2019-02-08T20:18:22.231Z,10.77
2019-02-08T20:20:50.962Z,13.63
2019-02-08T20:23:19.724Z,13.77
2019-02-08T20:25:48.702Z,15.03
2019-02-08T20:28:17.392Z,11.53
2019-02-08T20:30:46.059Z,10.20
2019-02-08T20:33:14.856Z,13.37
2019-02-08T20:35:43.588Z,7.60
2019-02-08T20:38:12.353Z,18.17
2019-02-08T20:40:42.416Z,8.03
2019-02-08T20:43:11.169Z,11.83
2019-02-08T20:45:40.087Z,13.93
2019-02-08T20:48:10.074Z,13.53
2019-02-08T20:50:38.807Z,12.47
2019-02-08T20:53:07.533Z,10.27
2019-02-08T20:55:36.228Z,15.47
2019-02-08T20:58:06.489Z,11.93
2019-02-08T21:00:36.831Z,12.93
2019-02-08T21:03:10.139Z,12.00
2019-02-08T21:05:38.910Z,10.10
2019-02-08T21:08:08.140Z,19.00
2019-02-08T21:10:37.236Z,13.10
2019-02-08T21:13:06.705Z,13.90
2019-02-08T21:15:35.414Z,13.60
2019-02-08T21:18:04.930Z,14.07
2019-02-08T21:20:33.645Z,11.30
2019-02-08T21:23:02.313Z,18.87
2019-02-08T21:25:31.274Z,15.27
2019-02-08T21:27:59.957Z,11.07
2019-02-08T21:30:28.670Z,13.07
2019-02-08T21:32:57.525Z,13.27
2019-02-08T21:35:26.297Z,14.63
2019-02-08T21:37:54.985Z,12.60
2019-02-08T21:40:24.358Z,15.43
2019-02-08T21:42:53.080Z,13.50
2019-02-08T21:45:23.240Z,14.17
2019-02-08T21:47:51.986Z,12.90
2019-02-08T21:50:21.120Z,16.87
2019-02-08T21:52:49.826Z,15.33
2019-02-08T21:55:18.499Z,14.90
2019-02-08T21:57:47.324Z,16.67
2019-02-08T22:00:17.023Z,13.00
2019-02-08T22:02:45.836Z,14.33
2019-02-08T22:05:14.740Z,14.83
2019-02-08T22:07:43.467Z,14.10
2019-02-08T22:10:12.343Z,15.43
2019-02-08T22:12:41.182Z,13.63
2019-02-08T22:15:20.058Z,14.60
2019-02-08T22:17:48.866Z,13.43
2019-02-08T22:20:18.037Z,14.97
2019-02-08T22:22:46.801Z,13.93
2019-02-08T22:25:16.182Z,15.93
2019-02-08T22:27:45.224Z,18.43
2019-02-08T22:30:15.331Z,18.67
2019-02-08T23:10:38.996Z,16.00
2019-02-08T23:13:13.922Z,17.50
